MDT,Max TemperatureF,Mean TemperatureF,Min TemperatureF,Max Dew PointF,MeanDew PointF,Min DewpointF,Max Humidity, Mean Humidity, Min Humidity, Max Sea Level PressureIn, Mean Sea Level PressureIn, Min Sea Level PressureIn, Max VisibilityMiles, Mean VisibilityMiles, Min VisibilityMiles, Max Wind SpeedMPH, Mean Wind SpeedMPH, Max Gust SpeedMPH,PrecipitationIn, CloudCover, Events, WindDirDegrees
2014-4-1,33,22,11,21,16,9,92,76,59,30.16,30.06,30.01,,,,15,8,19,0.00,,,105
2014-4-2,30,23,15,24,19,12,92,85,78,30.04,29.99,29.95,,,,12,4,14,0.00,,,95
2014-4-3,47,33,18,30,24,15,96,67,38,30.13,30.09,30.00,,,,16,5,19,0.00,,,355
2014-4-4,62,44,26,31,26,22,92,57,22,30.07,29.85,29.69,,,,32,10,41,0.00,,,236
2014-4-5,58,44,30,32,27,21,85,55,24,29.87,29.83,29.77,,,,22,9,26,0.00,,,284
2014-4-6,60,44,28,39,29,20,92,57,21,30.01,29.87,29.80,,,,35,12,44,0.00,,,280
2014-4-7,61,45,29,35,28,20,92,57,22,30.19,30.11,30.03,,,,23,10,30,0.00,,,298
2014-4-8,73,53,32,35,30,25,78,48,17,30.09,29.93,29.78,,,,28,10,35,0.00,,,283
2014-4-9,69,51,33,37,29,19,76,50,24,29.93,29.77,29.63,,,,39,16,46,0.00,,,301
2014-4-10,62,45,27,31,23,14,92,53,14,29.97,29.92,29.85,,,,24,9,32,0.00,,,284
2014-4-11,65,46,27,31,26,23,85,53,20,29.96,29.82,29.70,,,,24,6,31,0.00,,,292
2014-4-12,45,37,29,36,26,15,89,70,51,30.26,30.02,29.76,,,,26,15,34,0.00,,,332
2014-4-13,43,29,14,18,13,9,88,57,25,30.40,30.35,30.29,,,,23,10,31,0.00,,,324
2014-4-14,49,31,12,19,15,9,88,57,26,30.39,30.23,29.92,,,,13,6,16,0.00,,,112
2014-4-15,65,49,32,24,20,14,61,38,14,29.89,29.67,29.55,,,,31,12,36,0.00,,,296
2014-4-16,42,34,26,23,21,20,81,64,46,30.23,30.07,29.72,,,,17,10,21,0.00,,,51
2014-4-17,60,43,26,42,29,22,86,59,31,30.20,29.99,29.81,,,,16,9,23,0.01,,,151
2014-4-18,59,47,34,47,38,26,83,62,40,29.83,29.72,29.64,,,,40,10,55,0.07,,,215
2014-4-19,65,50,34,28,23,14,70,42,14,29.99,29.91,29.82,,,,20,9,29,0.00,,,265
2014-4-20,66,50,33,30,24,18,89,53,16,30.16,29.99,29.82,,,,37,14,44,0.00,,,296
2014-4-21,68,49,30,26,22,17,69,42,14,30.25,30.15,29.98,,,,14,6,22,0.00,,,281
2014-4-22,78,61,43,36,32,26,53,36,19,29.96,29.64,29.33,,,,25,13,33,0.00,,,110
2014-4-23,60,49,37,45,28,15,80,50,19,29.77,29.55,29.31,,,,37,19,46,0.00,,,285
2014-4-24,61,45,28,34,26,18,76,49,22,29.83,29.78,29.75,,,,25,11,31,0.00,,,274
2014-4-25,66,48,29,36,29,26,100,61,22,29.79,29.74,29.64,,,,16,7,26,0.00,,,310
2014-4-26,67,56,45,45,39,27,86,62,37,29.63,29.48,29.40,,,,24,14,30,0.12,,,42
2014-4-27,54,43,32,43,35,29,96,67,38,29.72,29.62,29.49,,,,29,15,35,0.03,,,317
2014-4-28,56,44,31,35,31,27,100,69,38,30.19,29.89,29.68,,,,35,17,42,0.00,,,318
2014-4-29,42,40,37,36,34,33,92,83,73,30.51,30.40,30.21,,,,28,14,36,0.10,,,338
2014-4-30,64,47,30,35,28,19,92,56,20,30.49,30.41,30.33,,,,30,16,38,0.00,,,338